Time;durP1;ratioP1;P1;durP2;ratioP2;P2;SDS_P1;SDS_P2;PMS_P1;PMS_P2;Temp;Humidity;BMP_temperature;BMP_pressure;BME280_temperature;BME280_humidity;BME280_pressure;Samples;Min_cycle;Max_cycle;Signal;HPM_P1;HPM_P2
2022/03/04 00:01:39;;;;;;;15.70;8.30;;;1.10;99.90;;;;;;5071143;28;20056;-73
2022/03/04 00:04:06;;;;;;;15.07;8.68;;;1.00;99.90;;;;;;5070592;28;20055;-72
2022/03/04 00:06:32;;;;;;;16.40;8.43;;;1.00;99.90;;;;;;5071269;28;20106;-74
2022/03/04 00:09:01;;;;;;;17.40;9.38;;;1.00;99.90;;;;;;5071300;28;20049;-73
2022/03/04 00:11:28;;;;;;;19.25;9.30;;;0.90;99.90;;;;;;5070497;28;20472;-75
2022/03/04 00:13:55;;;;;;;17.73;9.80;;;0.90;99.90;;;;;;5070983;28;20057;-75
2022/03/04 00:16:24;;;;;;;15.77;9.07;;;1.00;99.90;;;;;;5072108;28;20052;-73
2022/03/04 00:19:06;;;;;;;16.85;8.88;;;0.90;99.90;;;;;;5070673;28;20060;-74
2022/03/04 00:21:33;;;;;;;19.25;9.35;;;1.40;99.90;;;;;;5071311;28;20064;-74
2022/03/04 00:24:02;;;;;;;16.88;8.70;;;0.90;99.90;;;;;;5070508;28;20044;-74
2022/03/04 00:26:29;;;;;;;18.67;9.82;;;0.80;99.90;;;;;;5071364;28;20098;-74
2022/03/04 00:28:56;;;;;;;23.00;10.52;;;0.80;99.90;;;;;;5071526;28;20249;-73
2022/03/04 00:31:24;;;;;;;17.10;9.20;;;0.80;99.90;;;;;;5070156;28;20052;-75
2022/03/04 00:33:51;;;;;;;20.50;9.10;;;1.30;99.90;;;;;;5070693;28;20098;-73
2022/03/04 00:36:22;;;;;;;16.83;8.98;;;0.70;99.90;;;;;;5070834;28;20060;-74
2022/03/04 00:38:51;;;;;;;17.27;9.57;;;0.70;99.90;;;;;;5070028;28;20504;-74
2022/03/04 00:41:21;;;;;;;23.73;10.80;;;1.10;99.90;;;;;;5070778;28;20055;-75
2022/03/04 00:43:51;;;;;;;20.27;9.98;;;0.70;99.90;;;;;;5069998;28;20126;-75
2022/03/04 00:46:18;;;;;;;19.80;9.85;;;0.70;99.90;;;;;;5069963;28;20079;-74
2022/03/04 00:48:46;;;;;;;18.90;9.95;;;0.70;99.90;;;;;;5070685;28;20106;-76
2022/03/04 00:51:14;;;;;;;21.83;10.07;;;0.60;99.90;;;;;;5070332;28;20109;-75
2022/03/04 00:53:42;;;;;;;17.05;9.48;;;0.60;99.90;;;;;;5069665;28;20048;-74
2022/03/04 00:56:10;;;;;;;18.35;9.88;;;0.60;99.90;;;;;;5070032;28;20110;-73
2022/03/04 00:58:39;;;;;;;21.17;10.52;;;0.60;99.90;;;;;;5070000;28;20585;-74
2022/03/04 01:01:07;;;;;;;17.67;10.15;;;0.60;99.90;;;;;;5069917;28;20083;-73
2022/03/04 01:03:35;;;;;;;17.75;9.70;;;0.60;99.90;;;;;;5069850;28;20404;-73
2022/03/04 01:06:03;;;;;;;21.05;10.45;;;0.50;99.90;;;;;;5069332;28;20052;-73
2022/03/04 01:08:30;;;;;;;19.50;10.85;;;0.60;99.90;;;;;;5069949;28;20057;-74
2022/03/04 01:10:57;;;;;;;22.00;11.30;;;0.50;99.90;;;;;;5069954;28;20087;-75
2022/03/04 01:13:25;;;;;;;17.70;10.90;;;0.50;99.90;;;;;;5069456;28;20381;-73
2022/03/04 01:15:54;;;;;;;20.27;11.57;;;0.50;99.90;;;;;;5070139;28;20451;-74
2022/03/04 01:18:21;;;;;;;18.92;10.40;;;0.50;99.90;;;;;;5069859;28;20149;-74
2022/03/04 01:20:48;;;;;;;21.58;11.15;;;0.50;99.90;;;;;;5069325;28;20087;-72
2022/03/04 01:23:15;;;;;;;21.67;12.32;;;0.50;99.90;;;;;;5069437;28;20052;-73
2022/03/04 01:25:42;;;;;;;19.50;10.63;;;0.40;99.90;;;;;;5070286;28;20450;-73
2022/03/04 01:28:09;;;;;;;19.38;10.85;;;0.40;99.90;;;;;;5069490;28;20469;-72
2022/03/04 01:30:36;;;;;;;23.83;10.65;;;0.30;99.90;;;;;;5069970;28;20052;-72
2022/03/04 01:33:04;;;;;;;24.95;12.30;;;0.30;99.90;;;;;;5069829;28;20468;-73
2022/03/04 01:35:31;;;;;;;17.65;10.70;;;0.30;99.90;;;;;;5068704;28;20056;-73
2022/03/04 01:37:58;;;;;;;22.23;12.25;;;0.20;99.90;;;;;;5069991;28;20057;-73
2022/03/04 01:40:24;;;;;;;25.60;12.52;;;0.20;99.90;;;;;;5069911;28;20106;-73
2022/03/04 01:42:51;;;;;;;21.40;12.85;;;0.20;99.90;;;;;;5069191;28;20114;-75
2022/03/04 01:45:18;;;;;;;24.75;12.55;;;0.10;99.90;;;;;;5069877;28;20094;-73
2022/03/04 01:47:45;;;;;;;20.20;11.93;;;0.10;99.90;;;;;;5069779;28;20083;-73
2022/03/04 01:50:13;;;;;;;21.40;12.65;;;0.10;99.90;;;;;;5069294;28;20087;-74
2022/03/04 01:52:41;;;;;;;24.63;12.57;;;0.00;99.90;;;;;;5069624;28;20349;-74
2022/03/04 01:55:09;;;;;;;21.48;12.20;;;0.00;99.90;;;;;;5070265;28;20114;-73
2022/03/04 01:57:36;;;;;;;22.70;12.95;;;0.00;99.90;;;;;;5073980;28;20458;-72
2022/03/04 02:00:06;;;;;;;22.40;12.60;;;0.00;99.90;;;;;;5073603;28;20048;-73
2022/03/04 02:02:32;;;;;;;27.20;13.48;;;0.00;99.90;;;;;;5072498;28;20055;-72
2022/03/04 02:05:00;;;;;;;25.08;12.75;;;-0.10;99.90;;;;;;5073212;28;20045;-73
2022/03/04 02:07:28;;;;;;;27.23;13.15;;;-0.10;99.90;;;;;;5073483;28;20045;-74
2022/03/04 02:09:55;;;;;;;25.20;12.38;;;-0.10;99.90;;;;;;5073008;28;20418;-74
2022/03/04 02:12:22;;;;;;;26.70;12.15;;;-0.20;99.90;;;;;;5073138;28;20056;-74
2022/03/04 02:14:49;;;;;;;27.80;14.20;;;-0.20;99.90;;;;;;5073509;28;20561;-74
2022/03/04 02:17:19;;;;;;;24.43;13.30;;;-0.30;99.90;;;;;;5072145;28;20053;-74
2022/03/04 02:19:45;;;;;;;23.20;13.05;;;-0.20;99.90;;;;;;5073207;28;20048;-72
2022/03/04 02:22:14;;;;;;;27.38;12.98;;;-0.30;99.90;;;;;;5073115;28;20056;-72
2022/03/04 02:24:40;;;;;;;26.52;12.55;;;-0.30;99.90;;;;;;5072457;28;20495;-73
2022/03/04 02:27:08;;;;;;;25.15;13.82;;;-0.40;99.90;;;;;;5073135;28;20040;-74
2022/03/04 02:29:35;;;;;;;31.10;13.63;;;-0.30;99.90;;;;;;5072868;28;20126;-73
2022/03/04 02:32:03;;;;;;;26.45;12.63;;;-0.40;99.90;;;;;;5071817;28;20122;-74
2022/03/04 02:34:30;;;;;;;24.90;13.75;;;-0.40;99.90;;;;;;5073268;28;20527;-73
2022/03/04 02:36:58;;;;;;;23.95;12.88;;;-0.40;99.90;;;;;;5072678;28;20109;-73
2022/03/04 02:39:27;;;;;;;25.85;13.38;;;-0.40;99.90;;;;;;5071904;28;20075;-71
2022/03/04 02:41:54;;;;;;;25.05;13.43;;;-0.40;99.90;;;;;;5072178;28;20071;-73
2022/03/04 02:44:21;;;;;;;23.15;12.63;;;-0.50;99.90;;;;;;5072258;28;20072;-76
2022/03/04 02:46:48;;;;;;;23.95;13.75;;;-0.50;99.90;;;;;;5072751;28;20051;-73
2022/03/04 02:49:15;;;;;;;23.30;13.07;;;-0.50;99.90;;;;;;5073048;28;20380;-73
2022/03/04 02:51:42;;;;;;;25.30;13.15;;;-0.60;99.90;;;;;;5072287;28;20114;-72
2022/03/04 02:54:09;;;;;;;24.23;13.35;;;-0.60;99.90;;;;;;5072476;28;20055;-72
2022/03/04 02:56:38;;;;;;;24.40;13.45;;;-0.50;99.90;;;;;;5072595;28;20056;-72
2022/03/04 02:59:04;;;;;;;22.67;13.25;;;-0.60;99.90;;;;;;5071752;28;20080;-73
2022/03/04 03:01:31;;;;;;;25.05;13.57;;;-0.60;99.90;;;;;;5071841;28;20056;-73
2022/03/04 03:03:58;;;;;;;22.10;12.52;;;-0.60;99.90;;;;;;5073765;28;20102;-72
2022/03/04 03:06:25;;;;;;;23.10;13.52;;;-0.70;99.90;;;;;;5071485;28;20076;-73
2022/03/04 03:08:52;;;;;;;27.92;14.52;;;-0.70;99.90;;;;;;5072391;28;20106;-74
2022/03/04 03:11:22;;;;;;;26.98;14.18;;;-0.70;99.90;;;;;;5072279;28;20109;-74
2022/03/04 03:13:53;;;;;;;29.65;15.45;;;-0.70;99.90;;;;;;5071718;28;20052;-75
2022/03/04 03:16:21;;;;;;;25.17;14.20;;;-0.70;99.90;;;;;;5072212;28;20094;-75
2022/03/04 03:18:47;;;;;;;28.27;14.43;;;-0.80;99.90;;;;;;5072100;28;20467;-74
2022/03/04 03:21:14;;;;;;;22.92;13.38;;;-0.80;99.90;;;;;;5071622;28;20114;-73
2022/03/04 03:23:41;;;;;;;22.88;12.90;;;-0.80;99.90;;;;;;5071843;28;20052;-73
2022/03/04 03:26:08;;;;;;;23.27;12.35;;;-0.30;99.90;;;;;;5071991;28;20083;-73
2022/03/04 03:28:36;;;;;;;24.35;13.50;;;-0.90;99.90;;;;;;5071423;28;20044;-73
2022/03/04 03:31:05;;;;;;;27.98;13.02;;;-0.90;99.90;;;;;;5071784;28;20388;-73
2022/03/04 03:33:31;;;;;;;22.63;12.77;;;-0.90;99.90;;;;;;5071891;28;20465;-72
2022/03/04 03:35:58;;;;;;;26.45;14.55;;;-0.90;99.90;;;;;;5071806;28;20059;-72
2022/03/04 03:38:25;;;;;;;23.65;12.80;;;-0.90;99.90;;;;;;5071695;28;20048;-73
2022/03/04 03:40:52;;;;;;;21.95;12.80;;;-0.90;99.90;;;;;;5071296;28;20056;-74
2022/03/04 03:43:19;;;;;;;20.45;12.45;;;-0.90;99.90;;;;;;5071588;28;20086;-73
2022/03/04 03:45:46;;;;;;;26.55;13.25;;;-1.00;99.90;;;;;;5071665;28;20121;-72
2022/03/04 03:48:14;;;;;;;27.02;14.10;;;-1.00;99.90;;;;;;5071158;28;20106;-73
2022/03/04 03:50:41;;;;;;;22.58;13.85;;;-1.00;99.90;;;;;;5071649;28;20154;-72
2022/03/04 03:53:09;;;;;;;24.25;12.63;;;-1.00;99.90;;;;;;5071402;28;20091;-73
2022/03/04 03:55:36;;;;;;;27.15;13.85;;;-1.10;99.90;;;;;;5070895;28;20056;-73
2022/03/04 03:58:03;;;;;;;22.38;13.43;;;-1.10;99.90;;;;;;5070797;28;20500;-73
2022/03/04 04:00:31;;;;;;;25.88;13.57;;;-1.10;99.90;;;;;;5071363;28;20117;-74
2022/03/04 04:02:57;;;;;;;29.02;14.55;;;-1.20;99.90;;;;;;5070388;28;20495;-73
2022/03/04 04:05:26;;;;;;;25.92;14.38;;;-1.20;99.90;;;;;;5071272;28;20119;-74
2022/03/04 04:07:52;;;;;;;28.27;13.57;;;-1.20;99.90;;;;;;5071442;28;20484;-75
2022/03/04 04:10:20;;;;;;;29.83;14.02;;;-1.20;99.90;;;;;;5070421;28;20044;-75
2022/03/04 04:12:47;;;;;;;22.52;13.98;;;-0.50;99.90;;;;;;5072257;28;20459;-74
2022/03/04 04:15:13;;;;;;;27.63;14.60;;;-1.30;99.90;;;;;;5072139;28;20488;-73
2022/03/04 04:17:40;;;;;;;32.63;14.43;;;-1.30;99.90;;;;;;5070172;28;20078;-75
2022/03/04 04:20:08;;;;;;;26.73;13.10;;;-1.20;99.90;;;;;;5069846;28;20053;-76
2022/03/04 04:22:36;;;;;;;31.88;14.82;;;-1.40;99.90;;;;;;5070955;28;20129;-73
2022/03/04 04:25:04;;;;;;;29.08;14.60;;;-1.30;99.90;;;;;;5070995;28;20511;-71
2022/03/04 04:27:30;;;;;;;28.50;14.65;;;-1.40;99.90;;;;;;5070634;28;20049;-75
2022/03/04 04:29:57;;;;;;;29.85;14.48;;;-1.40;99.90;;;;;;5070122;28;20574;-76
2022/03/04 04:32:24;;;;;;;32.90;15.95;;;-1.40;99.90;;;;;;5070895;28;20113;-74
2022/03/04 04:34:51;;;;;;;29.33;14.88;;;-1.40;99.90;;;;;;5070823;28;20114;-73
2022/03/04 04:37:18;;;;;;;29.55;14.70;;;-1.40;99.90;;;;;;5069944;28;20052;-72
2022/03/04 04:39:46;;;;;;;29.58;15.18;;;-1.40;99.90;;;;;;5070638;28;20052;-77
2022/03/04 04:42:14;;;;;;;29.83;15.50;;;-1.40;99.90;;;;;;5070267;28;20428;-73
2022/03/04 04:44:40;;;;;;;30.52;15.73;;;-1.40;99.90;;;;;;5070237;28;20377;-74
2022/03/04 04:47:07;;;;;;;32.30;16.23;;;-1.20;99.90;;;;;;5070407;28;20106;-74
2022/03/04 04:49:36;;;;;;;31.88;16.48;;;-1.30;99.90;;;;;;5070511;28;20102;-73
2022/03/04 04:52:05;;;;;;;32.63;14.88;;;-1.30;99.90;;;;;;5069532;28;20060;-74
2022/03/04 04:54:32;;;;;;;28.30;16.40;;;-1.30;99.90;;;;;;5070701;28;20523;-75
2022/03/04 04:57:01;;;;;;;30.55;15.02;;;-1.30;99.90;;;;;;5069907;28;20055;-72
2022/03/04 04:59:28;;;;;;;34.22;16.73;;;-1.20;99.90;;;;;;5069239;28;20557;-72
2022/03/04 05:01:54;;;;;;;32.17;18.35;;;-1.20;99.90;;;;;;5069913;28;20392;-74
2022/03/04 05:04:21;;;;;;;33.13;16.10;;;-1.20;99.90;;;;;;5070318;28;20048;-74
2022/03/04 05:06:48;;;;;;;30.63;15.95;;;-1.10;99.90;;;;;;5069381;28;20113;-75
2022/03/04 05:09:15;;;;;;;27.58;14.88;;;-1.10;99.90;;;;;;5070483;28;20080;-72
2022/03/04 05:11:42;;;;;;;31.73;15.52;;;-1.00;99.90;;;;;;5070153;28;20080;-72
2022/03/04 05:14:10;;;;;;;32.97;16.60;;;-1.00;99.90;;;;;;5069209;28;20098;-72
2022/03/04 05:16:37;;;;;;;34.30;15.73;;;-1.00;99.90;;;;;;5070094;28;20052;-72
2022/03/04 05:19:07;;;;;;;30.23;15.07;;;-0.90;99.90;;;;;;5069194;28;20582;-73
2022/03/04 05:21:34;;;;;;;32.97;16.83;;;-0.90;99.90;;;;;;5069708;28;20044;-74
2022/03/04 05:24:02;;;;;;;31.30;15.27;;;-0.90;99.90;;;;;;5069953;28;20060;-75
2022/03/04 05:26:30;;;;;;;35.97;16.65;;;-1.00;99.90;;;;;;5069257;28;20067;-74
2022/03/04 05:28:58;;;;;;;31.20;16.13;;;-0.90;99.90;;;;;;5069623;28;20048;-73
2022/03/04 05:31:26;;;;;;;31.73;15.20;;;-1.00;99.90;;;;;;5069963;28;20108;-73
2022/03/04 05:33:54;;;;;;;34.28;16.67;;;-1.00;99.90;;;;;;5068394;28;20048;-73
2022/03/04 05:36:21;;;;;;;31.30;15.93;;;-0.90;99.90;;;;;;5067582;28;20076;-70
2022/03/04 05:38:48;;;;;;;31.17;16.63;;;-0.80;99.90;;;;;;5054399;28;20404;-70
2022/03/04 05:41:16;;;;;;;30.73;17.98;;;-0.80;99.90;;;;;;5059870;28;20101;-70
2022/03/04 05:43:43;;;;;;;32.88;15.88;;;-0.80;99.90;;;;;;5061232;28;20140;-70
2022/03/04 05:46:10;;;;;;;33.40;16.48;;;-0.70;99.90;;;;;;5063203;28;20495;-72
2022/03/04 05:48:38;;;;;;;29.70;15.73;;;-0.80;99.90;;;;;;5062618;28;20141;-70
2022/03/04 05:51:05;;;;;;;31.48;15.90;;;-0.70;99.90;;;;;;5066410;28;20455;-70
2022/03/04 05:53:32;;;;;;;29.92;15.65;;;-0.80;99.90;;;;;;5063085;28;20460;-69
2022/03/04 05:56:00;;;;;;;31.55;16.25;;;-0.70;99.90;;;;;;5058604;28;20053;-69
2022/03/04 05:58:27;;;;;;;30.02;15.18;;;-0.80;99.90;;;;;;5060212;28;20114;-70
2022/03/04 06:00:54;;;;;;;30.08;14.63;;;-0.80;99.90;;;;;;5059298;28;20492;-69
2022/03/04 06:03:21;;;;;;;28.80;13.50;;;-0.80;99.90;;;;;;5065172;28;20048;-71
2022/03/04 06:05:50;;;;;;;25.58;14.13;;;-0.80;99.90;;;;;;5059837;28;20099;-71
2022/03/04 06:08:17;;;;;;;27.25;14.90;;;-0.80;99.90;;;;;;5060131;28;20128;-71
2022/03/04 06:10:43;;;;;;;28.10;14.73;;;-0.90;99.90;;;;;;5062567;28;20420;-71
2022/03/04 06:13:11;;;;;;;30.58;15.52;;;-0.90;99.90;;;;;;5062119;28;20052;-71
2022/03/04 06:15:38;;;;;;;30.05;15.13;;;-0.80;99.90;;;;;;5061924;28;20052;-71
2022/03/04 06:18:04;;;;;;;32.60;15.43;;;-0.90;99.90;;;;;;5062232;28;20105;-71
2022/03/04 06:20:32;;;;;;;32.00;15.93;;;-0.80;99.90;;;;;;5062907;28;20040;-70
2022/03/04 06:23:01;;;;;;;28.35;15.18;;;-0.90;99.90;;;;;;5060798;28;20152;-70
2022/03/04 06:25:28;;;;;;;27.48;15.13;;;-0.80;99.90;;;;;;5063753;28;20381;-70
2022/03/04 06:27:56;;;;;;;28.98;16.27;;;-0.80;99.90;;;;;;5062629;28;20056;-70
2022/03/04 06:30:25;;;;;;;28.55;15.45;;;0.40;99.90;;;;;;5062124;28;20124;-71
2022/03/04 06:33:29;;;;;;;29.50;15.27;;;-0.80;99.90;;;;;;5060199;28;20052;-70
2022/03/04 06:35:41;;;;;;;30.17;16.50;;;-0.80;99.90;;;;;;5060522;28;20411;-69
2022/03/04 06:38:09;;;;;;;26.65;14.57;;;-0.80;99.90;;;;;;5065118;28;20056;-69
2022/03/04 06:40:37;;;;;;;26.30;13.50;;;-0.80;99.90;;;;;;5061167;28;20098;-70
2022/03/04 06:43:04;;;;;;;30.02;14.55;;;-0.80;99.90;;;;;;5064533;28;20115;-70
2022/03/04 06:45:31;;;;;;;31.05;15.45;;;-0.80;99.90;;;;;;5063394;28;20048;-72
2022/03/04 06:47:58;;;;;;;29.25;15.88;;;-0.70;99.90;;;;;;5065258;28;20127;-71
2022/03/04 06:50:26;;;;;;;28.45;14.63;;;-0.70;99.90;;;;;;5065359;28;20045;-72
2022/03/04 06:52:54;;;;;;;31.17;14.85;;;-0.70;99.90;;;;;;5066830;28;20052;-71
2022/03/04 06:55:22;;;;;;;30.30;15.57;;;-0.70;99.90;;;;;;5067411;28;20056;-72
2022/03/04 06:57:54;;;;;;;30.15;15.68;;;-0.60;99.90;;;;;;5064720;28;20052;-72
2022/03/04 07:00:25;;;;;;;27.23;14.65;;;-0.60;99.90;;;;;;5068242;28;20084;-71
2022/03/04 07:06:46;;;;;;;26.98;14.57;;;-0.20;99.90;;;;;;5064083;28;20089;-66
2022/03/04 07:09:13;;;;;;;27.98;13.43;;;-0.30;99.90;;;;;;5069647;28;20095;-66
2022/03/04 07:11:41;;;;;;;24.58;14.10;;;-0.30;99.90;;;;;;5071339;28;20076;-66
2022/03/04 07:14:08;;;;;;;27.38;13.88;;;-0.30;99.90;;;;;;5071283;28;20139;-65
2022/03/04 07:16:35;;;;;;;26.52;14.77;;;-0.30;99.90;;;;;;5072741;28;20139;-66
2022/03/04 07:19:02;;;;;;;27.80;14.80;;;-0.30;99.90;;;;;;5071963;28;20049;-65
2022/03/04 07:21:29;;;;;;;26.52;14.60;;;-0.40;99.90;;;;;;5072433;28;20123;-67
2022/03/04 07:23:56;;;;;;;26.33;13.68;;;-0.30;99.90;;;;;;5073293;28;20131;-66
2022/03/04 07:26:23;;;;;;;31.70;15.40;;;-0.30;99.90;;;;;;5074210;28;20463;-67
2022/03/04 07:28:51;;;;;;;27.40;14.57;;;-0.30;99.90;;;;;;5070515;28;20044;-67
2022/03/04 07:31:18;;;;;;;29.15;14.23;;;-0.20;99.90;;;;;;5073099;28;20041;-65
2022/03/04 07:33:44;;;;;;;31.77;14.52;;;-0.20;99.90;;;;;;5057955;28;20131;-67
2022/03/04 07:36:11;;;;;;;26.05;14.25;;;-0.10;99.90;;;;;;5072672;28;20467;-66
2022/03/04 07:38:38;;;;;;;26.88;14.50;;;-0.10;99.90;;;;;;5070148;28;20114;-66
2022/03/04 07:41:05;;;;;;;24.05;13.65;;;-0.10;99.90;;;;;;5067521;28;20106;-66
2022/03/04 07:43:32;;;;;;;26.27;13.63;;;0.00;99.90;;;;;;5072198;28;20086;-69
2022/03/04 07:46:00;;;;;;;26.25;14.27;;;1.00;99.90;;;;;;5072775;28;20079;-65
2022/03/04 07:48:27;;;;;;;26.38;14.60;;;-0.10;99.90;;;;;;5071966;28;20048;-65
2022/03/04 07:50:54;;;;;;;26.80;14.75;;;-0.10;99.90;;;;;;5071540;28;20048;-66
2022/03/04 07:53:21;;;;;;;28.55;14.88;;;0.00;99.90;;;;;;5071285;28;20147;-67
2022/03/04 07:55:48;;;;;;;26.40;15.10;;;0.00;99.90;;;;;;5070874;28;20554;-66
2022/03/04 07:58:14;;;;;;;26.05;13.95;;;0.00;99.90;;;;;;5071318;28;20056;-66
2022/03/04 08:00:41;;;;;;;27.17;13.35;;;0.20;99.90;;;;;;5070909;28;20137;-66
2022/03/04 08:03:10;;;;;;;25.90;13.95;;;0.30;99.90;;;;;;5069450;28;20056;-67
2022/03/04 08:05:36;;;;;;;24.52;13.52;;;0.40;99.90;;;;;;5068357;28;20498;-66
2022/03/04 08:08:06;;;;;;;27.75;12.98;;;0.40;99.90;;;;;;5070721;28;20522;-66
2022/03/04 08:10:33;;;;;;;25.33;13.35;;;0.40;99.90;;;;;;5069442;28;20052;-66
2022/03/04 08:13:00;;;;;;;20.58;12.60;;;0.40;99.90;;;;;;5070766;28;20507;-66
2022/03/04 08:15:27;;;;;;;21.23;12.35;;;0.50;99.90;;;;;;5072031;28;20193;-67
2022/03/04 08:17:53;;;;;;;21.58;12.23;;;0.50;99.90;;;;;;5071303;28;20054;-66
2022/03/04 08:20:22;;;;;;;22.13;11.77;;;0.60;99.90;;;;;;5070799;28;20094;-65
2022/03/04 08:22:49;;;;;;;21.08;11.27;;;0.70;99.90;;;;;;5070748;28;20060;-66
2022/03/04 08:25:16;;;;;;;23.48;11.48;;;0.80;99.90;;;;;;5070314;28;20048;-63
2022/03/04 08:27:43;;;;;;;20.25;11.65;;;1.00;99.90;;;;;;5070822;28;20080;-66
2022/03/04 08:30:12;;;;;;;20.00;10.90;;;1.20;99.90;;;;;;5071857;28;20094;-61
2022/03/04 08:32:40;;;;;;;20.75;12.05;;;1.30;99.90;;;;;;5071637;28;20091;-61
2022/03/04 08:35:08;;;;;;;23.00;12.75;;;1.50;99.90;;;;;;5072111;28;20052;-60
2022/03/04 08:37:36;;;;;;;21.02;12.18;;;1.80;99.90;;;;;;5070770;28;20049;-61
2022/03/04 08:40:04;;;;;;;18.92;10.15;;;2.00;99.90;;;;;;5070407;28;20049;-60
2022/03/04 08:42:31;;;;;;;19.05;11.20;;;2.40;99.90;;;;;;5071593;28;20149;-60
2022/03/04 08:45:00;;;;;;;19.80;11.95;;;2.90;99.90;;;;;;5070063;28;20048;-60
2022/03/04 08:47:27;;;;;;;19.50;11.68;;;3.20;99.90;;;;;;5070369;28;20115;-61
2022/03/04 08:49:54;;;;;;;22.00;11.50;;;3.40;99.90;;;;;;5070303;28;20049;-61
2022/03/04 08:52:21;;;;;;;19.98;12.18;;;3.70;99.90;;;;;;5069695;28;20132;-61
2022/03/04 08:54:51;;;;;;;22.10;12.20;;;3.70;99.90;;;;;;5070572;28;20063;-61
2022/03/04 08:57:19;;;;;;;19.40;12.50;;;4.10;99.90;;;;;;5071483;28;20057;-60
2022/03/04 08:59:46;;;;;;;20.75;12.15;;;4.20;99.90;;;;;;5069354;28;20044;-60
2022/03/04 09:02:13;;;;;;;20.92;13.02;;;4.00;99.90;;;;;;5070162;28;20072;-61
2022/03/04 09:04:40;;;;;;;27.55;12.98;;;4.10;99.90;;;;;;5070116;28;20048;-60
2022/03/04 09:07:07;;;;;;;20.77;13.27;;;4.20;99.90;;;;;;5068631;28;20122;-60
2022/03/04 09:09:34;;;;;;;18.35;11.50;;;4.40;99.90;;;;;;5067637;28;20491;-61
2022/03/04 09:12:03;;;;;;;19.65;12.20;;;5.30;99.90;;;;;;5069953;28;20060;-61
2022/03/04 09:14:30;;;;;;;16.88;10.63;;;6.20;99.90;;;;;;5069655;28;20052;-61
2022/03/04 09:16:57;;;;;;;16.73;11.45;;;7.20;99.90;;;;;;5070734;28;20052;-61
2022/03/04 09:19:24;;;;;;;14.85;10.20;;;7.50;99.90;;;;;;5070720;28;20045;-61
2022/03/04 09:21:51;;;;;;;16.08;11.15;;;8.20;99.90;;;;;;5070579;28;20050;-61
2022/03/04 09:24:18;;;;;;;15.73;10.25;;;8.90;99.90;;;;;;5070295;28;20060;-61
2022/03/04 09:26:45;;;;;;;13.98;9.65;;;8.80;99.90;;;;;;5069422;28;20052;-60
2022/03/04 09:29:13;;;;;;;15.35;10.40;;;8.90;99.90;;;;;;5070186;28;20492;-62
2022/03/04 09:31:40;;;;;;;16.58;10.95;;;9.90;99.90;;;;;;5071026;28;20514;-62
2022/03/04 09:34:07;;;;;;;15.30;10.10;;;11.00;99.90;;;;;;5069266;28;20067;-61
2022/03/04 09:36:34;;;;;;;14.73;10.73;;;11.20;99.70;;;;;;5069255;28;20496;-61
2022/03/04 09:39:01;;;;;;;16.65;9.82;;;10.50;94.40;;;;;;5070226;28;20056;-62
2022/03/04 09:41:28;;;;;;;14.55;10.30;;;9.70;96.80;;;;;;5070355;28;20047;-61
2022/03/04 09:43:56;;;;;;;14.18;10.05;;;9.20;98.70;;;;;;5071064;28;20052;-61
2022/03/04 09:46:24;;;;;;;13.75;9.73;;;9.80;96.40;;;;;;5070755;28;20049;-62
2022/03/04 09:48:53;;;;;;;15.65;10.60;;;11.30;96.50;;;;;;5069672;28;20127;-62
2022/03/04 09:51:21;;;;;;;13.32;9.20;;;12.60;92.90;;;;;;5070676;28;20518;-62
2022/03/04 09:53:50;;;;;;;14.75;9.20;;;13.20;90.10;;;;;;5069072;28;20061;-61
2022/03/04 09:56:19;;;;;;;12.57;9.55;;;13.60;83.40;;;;;;5070435;28;20078;-62
2022/03/04 09:58:49;;;;;;;14.05;10.40;;;13.50;84.10;;;;;;5070740;28;20492;-62
2022/03/04 10:01:18;;;;;;;15.43;10.45;;;12.90;82.50;;;;;;5066098;28;20048;-61
2022/03/04 10:03:47;;;;;;;14.65;10.93;;;13.60;78.10;;;;;;5067759;28;20102;-62
2022/03/04 10:06:15;;;;;;;13.80;9.80;;;14.50;73.50;;;;;;5069513;28;20097;-61
2022/03/04 10:08:43;;;;;;;16.85;10.55;;;13.90;76.10;;;;;;5067387;28;20049;-61
2022/03/04 10:11:11;;;;;;;15.70;9.93;;;15.20;75.00;;;;;;5066705;28;20440;-61
2022/03/04 10:13:43;;;;;;;13.45;9.85;;;14.60;71.60;;;;;;5070534;28;20470;-60
2022/03/04 10:16:11;;;;;;;15.38;11.30;;;14.50;71.50;;;;;;5069926;28;20132;-61
2022/03/04 10:18:38;;;;;;;12.88;10.30;;;14.10;72.90;;;;;;5073510;28;20084;-61
2022/03/04 10:21:06;;;;;;;12.95;9.60;;;14.50;70.40;;;;;;5075013;28;20110;-60
2022/03/04 10:23:33;;;;;;;12.63;8.90;;;15.10;75.40;;;;;;5072582;28;20076;-61
2022/03/04 10:26:01;;;;;;;14.05;9.68;;;16.20;71.40;;;;;;5074489;28;20040;-61
2022/03/04 10:28:30;;;;;;;11.65;9.40;;;14.90;70.70;;;;;;5068987;28;20088;-61
2022/03/04 10:30:58;;;;;;;13.68;9.57;;;15.60;67.70;;;;;;5074058;28;20169;-62
2022/03/04 10:33:26;;;;;;;11.25;8.30;;;14.80;68.50;;;;;;5074480;28;20084;-61
2022/03/04 10:36:10;;;;;;;11.38;9.60;;;16.30;69.40;;;;;;5072909;28;20095;-61
2022/03/04 10:38:38;;;;;;;12.82;8.98;;;16.20;64.50;;;;;;5059852;28;20150;-60
2022/03/04 10:41:25;;;;;;;11.40;8.73;;;15.80;67.90;;;;;;5055763;28;20084;-61
2022/03/04 10:43:52;;;;;;;10.23;8.50;;;16.50;65.00;;;;;;5067097;28;20412;-61
2022/03/04 10:46:19;;;;;;;11.55;9.38;;;16.80;64.30;;;;;;5061357;28;20049;-62
2022/03/04 10:48:53;;;;;;;11.40;8.57;;;17.40;63.60;;;;;;5063234;28;20489;-62
2022/03/04 10:51:38;;;;;;;10.15;7.70;;;18.10;60.40;;;;;;5059482;28;20044;-62
2022/03/04 10:54:15;;;;;;;10.45;8.30;;;18.10;59.70;;;;;;5065187;28;20044;-61
2022/03/04 10:56:51;;;;;;;9.88;7.88;;;17.50;59.30;;;;;;5064520;28;20044;-61
2022/03/04 10:59:20;;;;;;;12.85;9.82;;;16.80;61.60;;;;;;5060914;28;20057;-61
2022/03/04 11:01:48;;;;;;;11.43;8.68;;;16.50;61.70;;;;;;5059482;28;20053;-64
2022/03/04 11:04:19;;;;;;;9.75;7.93;;;17.20;60.90;;;;;;5058454;28;20465;-61
2022/03/04 11:06:49;;;;;;;13.75;8.40;;;17.00;62.20;;;;;;5068623;28;20076;-62
2022/03/04 11:09:23;;;;;;;12.80;9.50;;;18.50;60.60;;;;;;5064074;28;20054;-61
2022/03/04 11:11:54;;;;;;;10.80;8.10;;;18.90;59.30;;;;;;5065149;28;20082;-61
2022/03/04 11:14:21;;;;;;;;;;;19.10;58.00;;;;;;5069899;28;20060;-62
2022/03/04 11:16:49;;;;;;;13.00;9.23;;;18.80;56.70;;;;;;5071897;28;19924;-61
2022/03/04 11:19:17;;;;;;;9.40;7.60;;;18.30;56.10;;;;;;5067555;28;20077;-62
2022/03/04 11:21:44;;;;;;;10.18;8.40;;;18.80;57.90;;;;;;5071743;28;20061;-61
2022/03/04 11:24:12;;;;;;;10.15;8.43;;;17.40;56.80;;;;;;5072375;28;20491;-61
2022/03/04 11:26:43;;;;;;;14.80;8.98;;;18.20;57.30;;;;;;5072938;28;20129;-61
2022/03/04 11:29:34;;;;;;;10.10;8.55;;;18.40;56.40;;;;;;5072389;28;20518;-62
2022/03/04 11:32:02;;;;;;;10.02;8.32;;;17.40;58.50;;;;;;5073174;28;20404;-62
2022/03/04 11:34:34;;;;;;;12.63;8.73;;;18.80;56.60;;;;;;5071657;28;20125;-62
2022/03/04 11:37:03;;;;;;;11.95;8.50;;;18.10;57.30;;;;;;5071386;28;20049;-63
2022/03/04 11:39:31;;;;;;;9.82;7.97;;;17.80;57.70;;;;;;5072342;28;20062;-61
2022/03/04 11:42:09;;;;;;;9.32;8.20;;;18.50;57.00;;;;;;5070903;28;20083;-62
2022/03/04 11:44:53;;;;;;;9.73;8.00;;;17.70;57.30;;;;;;5071554;28;20049;-61
2022/03/04 11:47:20;;;;;;;12.25;8.88;;;18.10;56.30;;;;;;5070394;28;20084;-62
2022/03/04 11:49:47;;;;;;;10.05;8.45;;;19.00;57.50;;;;;;5071638;28;20143;-62
2022/03/04 11:52:24;;;;;;;9.45;8.30;;;19.00;55.90;;;;;;5071940;28;20498;-62
2022/03/04 11:55:27;;;;;;;11.52;8.27;;;18.90;56.40;;;;;;5070738;28;20063;-61
2022/03/04 11:58:01;;;;;;;10.85;8.98;;;18.80;55.40;;;;;;5072210;28;20552;-62
2022/03/04 12:00:38;;;;;;;11.20;8.80;;;19.40;56.20;;;;;;5073101;28;20084;-61
2022/03/04 12:03:17;;;;;;;12.13;8.77;;;19.90;55.70;;;;;;5070840;28;20052;-62
2022/03/04 12:05:49;;;;;;;11.38;8.70;;;20.00;54.20;;;;;;5071461;28;20053;-62
2022/03/04 12:08:17;;;;;;;10.27;8.00;;;20.20;54.40;;;;;;5072374;28;20488;-62
2022/03/04 12:10:53;;;;;;;11.57;7.93;;;20.00;54.40;;;;;;5071005;28;20131;-61
2022/03/04 12:13:25;;;;;;;11.43;9.13;;;19.20;54.90;;;;;;5071323;28;20056;-62
2022/03/04 12:15:57;;;;;;;11.27;8.88;;;19.60;54.80;;;;;;5069814;28;20048;-61
2022/03/04 12:18:27;;;;;;;11.00;8.93;;;19.40;54.40;;;;;;5070686;28;20084;-62
2022/03/04 12:21:13;;;;;;;10.88;8.82;;;19.50;55.20;;;;;;5071272;28;20044;-60
2022/03/04 12:23:53;;;;;;;11.13;9.05;;;19.70;54.80;;;;;;5069939;28;20105;-60
2022/03/04 12:26:24;;;;;;;12.63;9.80;;;19.30;54.40;;;;;;5066484;28;20503;-62
2022/03/04 12:28:53;;;;;;;10.82;8.77;;;19.80;54.30;;;;;;5071599;28;20511;-62
2022/03/04 12:31:25;;;;;;;12.77;9.98;;;19.30;53.60;;;;;;5070778;28;20523;-61
2022/03/04 12:33:55;;;;;;;14.18;10.73;;;19.90;53.40;;;;;;5070427;28;20499;-62
2022/03/04 12:36:24;;;;;;;11.30;9.25;;;19.70;53.30;;;;;;5072051;28;20051;-62
2022/03/04 12:38:56;;;;;;;14.85;10.70;;;18.90;54.20;;;;;;5070302;28;20052;-61
2022/03/04 12:41:25;;;;;;;14.30;9.98;;;19.30;54.10;;;;;;5071256;28;20087;-62
2022/03/04 12:43:54;;;;;;;12.73;9.40;;;19.60;54.20;;;;;;5070503;28;20477;-62